createdAt,value
2019-04-18T00:01:10.430Z,63.20
2019-04-18T00:04:01.748Z,63.60
2019-04-18T00:06:39.442Z,64.10
2019-04-18T00:09:10.442Z,63.50
2019-04-18T00:11:40.596Z,63.50
2019-04-18T00:14:10.715Z,63.50
2019-04-18T00:16:40.950Z,63.80
2019-04-18T00:19:12.582Z,63.80
2019-04-18T00:21:42.609Z,64.10
2019-04-18T00:24:12.743Z,63.80
2019-04-18T00:26:43.971Z,64.30
2019-04-18T00:29:14.402Z,64.30
2019-04-18T00:31:44.529Z,64.30
2019-04-18T00:34:16.157Z,65.30
2019-04-18T00:36:47.161Z,64.70
2019-04-18T00:39:17.846Z,64.80
2019-04-18T00:41:49.614Z,64.90
2019-04-18T00:44:24.029Z,64.70
2019-04-18T00:46:54.144Z,64.90
2019-04-18T00:49:24.265Z,65.10
2019-04-18T00:51:54.384Z,64.90
2019-04-18T00:54:26.346Z,64.80
2019-04-18T00:56:56.156Z,66.10
2019-04-18T00:59:26.188Z,66.10
2019-04-18T01:01:57.216Z,66.10
2019-04-18T01:04:33.088Z,66.20
2019-04-18T01:06:59.093Z,66.00
2019-04-18T01:09:29.215Z,67.10
2019-04-18T01:12:01.416Z,66.20
2019-04-18T01:14:30.984Z,66.70
2019-04-18T01:17:03.659Z,66.50
2019-04-18T01:19:32.658Z,66.50
2019-04-18T01:22:02.783Z,66.50
2019-04-18T01:24:32.902Z,66.80
2019-04-18T01:27:03.629Z,66.80
2019-04-18T01:29:34.055Z,67.00
2019-04-18T01:32:04.447Z,67.00
2019-04-18T01:34:41.521Z,67.00
2019-04-18T01:37:06.761Z,67.00
2019-04-18T01:39:37.092Z,67.10
2019-04-18T01:42:21.137Z,67.10
2019-04-18T01:44:52.998Z,67.00
2019-04-18T01:47:25.049Z,67.20
2019-04-18T01:49:54.773Z,67.30
2019-04-18T01:52:26.855Z,67.40
2019-04-18T01:54:56.548Z,67.30
2019-04-18T01:57:27.739Z,67.60
2019-04-18T01:59:58.131Z,67.60
2019-04-18T02:02:28.235Z,67.60
2019-04-18T02:05:01.920Z,67.70
2019-04-18T02:07:29.810Z,67.60
2019-04-18T02:10:00.029Z,67.70
2019-04-18T02:12:30.147Z,68.10
2019-04-18T02:15:01.029Z,68.20
2019-04-18T02:17:31.413Z,68.20
2019-04-18T02:20:02.976Z,68.20
2019-04-18T02:22:32.955Z,68.40
2019-04-18T02:25:04.576Z,68.60
2019-04-18T02:27:34.957Z,68.50
2019-04-18T02:30:08.432Z,68.50
2019-04-18T02:32:38.888Z,68.60
2019-04-18T02:35:19.897Z,68.70
2019-04-18T02:37:42.162Z,68.90
2019-04-18T02:40:12.910Z,68.80
2019-04-18T02:42:42.943Z,68.90
2019-04-18T02:45:13.064Z,68.90
2019-04-18T02:47:43.388Z,69.00
2019-04-18T02:50:13.812Z,69.10
2019-04-18T02:52:43.838Z,69.00
2019-04-18T02:55:30.947Z,69.20
2019-04-18T02:58:05.395Z,69.30
2019-04-18T03:00:52.628Z,69.30
2019-04-18T03:03:25.061Z,69.20
2019-04-18T03:05:58.353Z,69.40
2019-04-18T03:08:28.897Z,69.40
2019-04-18T03:10:59.105Z,69.60
2019-04-18T03:13:29.226Z,69.60
2019-04-18T03:15:59.343Z,69.70
2019-04-18T03:18:29.466Z,69.90
2019-04-18T03:20:59.790Z,69.80
2019-04-18T03:23:29.803Z,70.00
2019-04-18T03:25:59.927Z,70.30
2019-04-18T03:28:30.044Z,70.20
2019-04-18T03:31:03.063Z,70.10
2019-04-18T03:33:31.715Z,70.20
2019-04-18T03:36:01.845Z,70.20
2019-04-18T03:38:31.954Z,70.30
2019-04-18T03:41:02.426Z,70.20
2019-04-18T03:43:33.434Z,70.30
2019-04-18T03:46:08.250Z,70.40
2019-04-18T03:48:39.417Z,70.50
2019-04-18T03:51:09.922Z,70.60
2019-04-18T03:53:40.042Z,70.60
2019-04-18T03:56:10.262Z,70.60
2019-04-18T03:58:42.556Z,70.60
2019-04-18T04:01:11.940Z,70.70
2019-04-18T04:03:44.097Z,70.80
2019-04-18T04:06:17.427Z,70.80
2019-04-18T04:08:45.263Z,70.80
2019-04-18T04:11:17.325Z,70.80
2019-04-18T04:13:46.832Z,70.80
2019-04-18T04:16:22.900Z,70.80
2019-04-18T04:18:50.657Z,70.90
2019-04-18T04:21:21.182Z,71.00
2019-04-18T04:23:51.404Z,70.80
2019-04-18T04:26:21.375Z,70.90
2019-04-18T04:28:51.540Z,70.80
2019-04-18T04:31:23.313Z,71.00
2019-04-18T04:33:53.416Z,71.00
2019-04-18T04:36:26.345Z,71.00
2019-04-18T04:38:56.029Z,71.10
2019-04-18T04:41:26.011Z,71.00
2019-04-18T04:43:56.033Z,71.30
2019-04-18T04:46:26.400Z,71.30
2019-04-18T04:49:00.726Z,71.20
2019-04-18T04:51:46.535Z,71.20
2019-04-18T04:54:25.215Z,71.40
2019-04-18T04:57:02.459Z,71.40
2019-04-18T04:59:39.001Z,71.50
2019-04-18T05:02:09.866Z,71.50
2019-04-18T05:04:40.462Z,71.40
2019-04-18T05:07:13.300Z,71.60
2019-04-18T05:09:44.753Z,71.60
2019-04-18T05:12:14.870Z,71.60
2019-04-18T05:14:44.991Z,71.70
2019-04-18T05:17:18.181Z,71.60
2019-04-18T05:19:48.195Z,71.90
2019-04-18T05:22:18.314Z,71.90
2019-04-18T05:24:48.437Z,71.90
2019-04-18T05:27:18.450Z,72.10
2019-04-18T05:29:50.755Z,71.90
2019-04-18T05:32:21.045Z,72.50
2019-04-18T05:34:51.254Z,72.20
2019-04-18T05:37:21.385Z,72.20
2019-04-18T05:39:52.035Z,72.40
2019-04-18T05:42:23.646Z,72.40
2019-04-18T05:44:53.999Z,72.60
2019-04-18T05:47:37.428Z,72.50
2019-04-18T05:50:13.870Z,72.60
2019-04-18T05:52:45.654Z,72.90
2019-04-18T05:55:21.632Z,72.80
2019-04-18T05:57:51.631Z,73.00
2019-04-18T06:00:24.684Z,73.40
2019-04-18T06:02:57.087Z,73.30
2019-04-18T06:05:42.055Z,73.50
2019-04-18T06:08:13.605Z,73.70
2019-04-18T06:10:47.120Z,73.80
2019-04-18T06:13:17.020Z,73.70
2019-04-18T06:15:56.652Z,73.90
2019-04-18T06:18:33.952Z,74.50
2019-04-18T06:21:07.430Z,74.50
2019-04-18T06:23:38.270Z,74.70
2019-04-18T06:26:10.530Z,74.90
2019-04-18T06:28:51.221Z,74.80
2019-04-18T06:31:26.253Z,74.90
2019-04-18T06:34:03.908Z,74.70
2019-04-18T06:36:32.637Z,75.00
2019-04-18T06:39:02.857Z,75.40
2019-04-18T06:41:35.833Z,75.90
2019-04-18T06:44:05.375Z,76.60
2019-04-18T06:46:35.672Z,76.90
2019-04-18T06:49:11.132Z,77.10
2019-04-18T06:51:39.017Z,76.90
2019-04-18T06:54:11.131Z,77.20
2019-04-18T06:56:42.440Z,76.90
2019-04-18T06:59:12.516Z,77.10
2019-04-18T07:01:44.272Z,76.70
2019-04-18T07:04:14.396Z,77.60
2019-04-18T07:06:44.871Z,77.80
2019-04-18T07:09:53.332Z,76.40
2019-04-18T07:12:10.785Z,77.30
2019-04-18T07:14:39.875Z,76.20
2019-04-18T07:17:10.536Z,76.00
2019-04-18T07:19:42.553Z,76.50
2019-04-18T07:22:14.315Z,75.60
2019-04-18T07:24:44.428Z,75.90
2019-04-18T07:27:15.329Z,76.00
2019-04-18T07:29:45.690Z,77.50
2019-04-18T07:32:16.015Z,76.40
2019-04-18T07:34:47.671Z,75.90
2019-04-18T07:37:19.664Z,76.70
2019-04-18T07:39:49.548Z,76.20
2019-04-18T07:42:19.874Z,76.30
2019-04-18T07:44:50.303Z,76.50
2019-04-18T07:47:38.670Z,76.70
2019-04-18T07:50:09.643Z,76.80
2019-04-18T07:52:43.403Z,76.30
2019-04-18T07:55:14.139Z,76.50
2019-04-18T07:57:44.550Z,77.00
2019-04-18T08:00:17.964Z,76.30
2019-04-18T08:02:48.166Z,76.10
2019-04-18T08:05:18.412Z,75.10
2019-04-18T08:07:48.712Z,75.10
2019-04-18T08:10:24.756Z,74.90
2019-04-18T08:12:50.999Z,74.40
2019-04-18T08:15:21.634Z,74.00
2019-04-18T08:17:53.147Z,74.00
2019-04-18T08:20:25.583Z,73.60
2019-04-18T08:22:55.622Z,73.30
2019-04-18T08:25:25.898Z,73.30
2019-04-18T08:27:56.289Z,73.30
2019-04-18T08:30:27.975Z,73.20
2019-04-18T08:32:58.623Z,73.00
2019-04-18T08:35:49.622Z,73.20
2019-04-18T08:38:24.674Z,73.00
2019-04-18T08:40:59.706Z,72.40
2019-04-18T08:43:38.447Z,72.60
2019-04-18T08:46:11.391Z,72.40
2019-04-18T08:48:42.437Z,72.20
2019-04-18T08:51:17.057Z,71.70
2019-04-18T08:53:49.630Z,71.80
2019-04-18T08:56:21.318Z,71.10
2019-04-18T08:58:51.721Z,71.50
2019-04-18T09:01:22.047Z,70.40
2019-04-18T09:03:52.388Z,68.70
2019-04-18T09:06:32.552Z,69.40
2019-04-18T09:08:56.672Z,70.20
2019-04-18T09:11:27.573Z,70.40
2019-04-18T09:14:08.047Z,70.70
2019-04-18T09:16:39.172Z,69.50
2019-04-18T09:19:14.249Z,69.50
2019-04-18T09:21:42.094Z,69.00
2019-04-18T09:24:19.388Z,68.30
2019-04-18T09:26:44.743Z,68.40
2019-04-18T09:29:15.165Z,67.90
2019-04-18T09:31:46.062Z,68.40
2019-04-18T09:34:16.861Z,68.20
2019-04-18T09:36:47.072Z,68.20
2019-04-18T09:39:17.180Z,67.20
2019-04-18T09:41:47.298Z,67.00
2019-04-18T09:44:19.535Z,68.60
2019-04-18T09:46:49.072Z,68.30
2019-04-18T09:49:19.395Z,68.00
2019-04-18T09:51:49.821Z,67.60
2019-04-18T09:54:19.964Z,68.10
2019-04-18T09:56:50.062Z,68.10
2019-04-18T09:59:20.654Z,68.50
2019-04-18T10:01:53.658Z,68.50
2019-04-18T10:04:22.670Z,68.60
2019-04-18T10:06:52.794Z,68.70
2019-04-18T10:09:23.011Z,67.90
2019-04-18T10:11:53.234Z,68.30
2019-04-18T10:14:23.357Z,67.70
2019-04-18T10:16:53.473Z,67.60
2019-04-18T10:19:25.739Z,67.40
2019-04-18T10:22:00.368Z,67.90
2019-04-18T10:24:32.122Z,67.10
2019-04-18T10:27:03.982Z,66.50
2019-04-18T10:29:44.854Z,66.00
2019-04-18T10:32:14.974Z,65.70
2019-04-18T10:34:45.094Z,66.40
2019-04-18T10:37:15.547Z,66.50
2019-04-18T10:39:46.933Z,66.80
2019-04-18T10:42:17.014Z,67.20
2019-04-18T10:44:47.313Z,67.30
2019-04-18T10:47:19.669Z,67.00
2019-04-18T10:49:50.107Z,67.30
2019-04-18T10:52:20.229Z,67.70
2019-04-18T10:54:51.439Z,66.90
2019-04-18T10:57:21.702Z,67.60
2019-04-18T10:59:53.575Z,67.30
2019-04-18T11:02:23.984Z,62.30
2019-04-18T11:04:54.308Z,62.50
2019-04-18T11:07:24.426Z,64.00
2019-04-18T11:09:58.181Z,64.10
2019-04-18T11:12:26.302Z,64.10
2019-04-18T11:14:56.961Z,63.50
2019-04-18T11:17:27.154Z,63.20
2019-04-18T11:19:57.383Z,62.10
2019-04-18T11:22:27.500Z,61.10
2019-04-18T11:24:57.617Z,60.90
2019-04-18T11:27:30.144Z,61.90
2019-04-18T11:29:59.491Z,62.50
2019-04-18T11:32:29.713Z,61.20
2019-04-18T11:34:59.835Z,61.10
2019-04-18T11:37:30.161Z,60.50
2019-04-18T11:40:00.485Z,61.00
2019-04-18T11:42:33.469Z,60.80
2019-04-18T11:45:04.308Z,61.20
2019-04-18T11:47:34.840Z,60.80
2019-04-18T11:50:10.116Z,61.10
2019-04-18T11:52:40.294Z,60.80
2019-04-18T11:55:10.823Z,60.50
2019-04-18T11:57:40.947Z,59.50
2019-04-18T12:00:22.534Z,60.50
2019-04-18T12:03:10.670Z,61.50
2019-04-18T12:05:41.024Z,62.10
2019-04-18T12:08:11.761Z,62.30
2019-04-18T12:10:43.185Z,62.70
2019-04-18T12:13:13.304Z,63.00
2019-04-18T12:15:43.417Z,63.10
2019-04-18T12:18:14.239Z,63.40
2019-04-18T12:20:45.295Z,63.80
2019-04-18T12:23:15.692Z,63.70
2019-04-18T12:25:58.406Z,63.90
2019-04-18T12:28:28.667Z,64.20
2019-04-18T12:30:58.907Z,63.40
2019-04-18T12:33:29.101Z,63.40
2019-04-18T12:35:59.905Z,62.90
2019-04-18T12:38:30.274Z,62.60
2019-04-18T12:41:08.785Z,62.80
2019-04-18T12:43:32.039Z,63.20
2019-04-18T12:46:02.170Z,62.10
2019-04-18T12:48:32.273Z,62.80
2019-04-18T12:51:02.395Z,62.60
2019-04-18T12:53:32.516Z,62.50
2019-04-18T12:56:02.799Z,61.80
2019-04-18T12:58:32.954Z,62.20
2019-04-18T13:01:03.719Z,61.90
2019-04-18T13:03:35.650Z,61.80
2019-04-18T13:06:06.505Z,57.80
2019-04-18T13:08:47.233Z,56.80
2019-04-18T13:11:21.884Z,56.10
2019-04-18T13:13:59.593Z,57.10
2019-04-18T13:16:33.794Z,57.00
2019-04-18T13:19:03.913Z,56.80
2019-04-18T13:21:34.144Z,57.70
2019-04-18T13:24:04.678Z,58.10
2019-04-18T13:26:34.887Z,58.10
2019-04-18T13:29:05.153Z,57.80
2019-04-18T13:31:35.534Z,57.70
2019-04-18T13:34:08.160Z,57.70
2019-04-18T13:36:38.334Z,55.60
2019-04-18T13:39:12.571Z,56.70
2019-04-18T13:41:43.076Z,56.60
2019-04-18T13:44:13.196Z,57.30
2019-04-18T13:46:43.519Z,57.80
2019-04-18T13:49:13.637Z,58.40
2019-04-18T13:51:45.099Z,58.30
2019-04-18T13:54:15.316Z,58.40
2019-04-18T13:56:47.069Z,58.40
2019-04-18T13:59:17.292Z,58.50
2019-04-18T14:01:47.515Z,58.20
2019-04-18T14:04:17.836Z,58.40
2019-04-18T14:06:47.957Z,58.30
2019-04-18T14:09:18.279Z,58.60
2019-04-18T14:11:48.397Z,58.90
2019-04-18T14:14:18.517Z,59.10
2019-04-18T14:16:48.642Z,59.20
2019-04-18T14:19:18.754Z,59.10
2019-04-18T14:21:48.876Z,57.60
2019-04-18T14:24:18.997Z,57.70
2019-04-18T14:26:49.119Z,57.90
2019-04-18T14:29:19.237Z,57.70
2019-04-18T14:31:49.559Z,56.90
2019-04-18T14:34:19.675Z,56.70
2019-04-18T14:36:49.799Z,56.90
2019-04-18T14:39:19.914Z,57.10
2019-04-18T14:41:50.142Z,57.30
2019-04-18T14:44:20.559Z,57.40
2019-04-18T14:46:51.911Z,57.60
2019-04-18T14:49:22.237Z,57.20
2019-04-18T14:51:52.355Z,57.40
2019-04-18T14:54:22.474Z,57.30
2019-04-18T14:56:53.259Z,57.50
2019-04-18T14:59:24.153Z,57.40
2019-04-18T15:01:54.563Z,60.40
2019-04-18T15:04:25.717Z,59.80
2019-04-18T15:06:56.039Z,63.10
2019-04-18T15:09:28.040Z,64.20
2019-04-18T15:11:58.913Z,65.40
2019-04-18T15:14:29.572Z,64.30
2019-04-18T15:16:59.844Z,63.30
2019-04-18T15:19:30.120Z,62.80
2019-04-18T15:22:00.760Z,61.50
2019-04-18T15:24:31.592Z,63.20
2019-04-18T15:27:01.910Z,64.00
2019-04-18T15:29:32.234Z,63.70
2019-04-18T15:32:02.808Z,64.60
2019-04-18T15:34:33.190Z,64.60
2019-04-18T15:37:03.474Z,65.10
2019-04-18T15:39:37.014Z,64.90
2019-04-18T15:42:08.567Z,65.60
2019-04-18T15:44:38.787Z,65.50
2019-04-18T15:47:11.930Z,65.30
2019-04-18T15:49:42.333Z,64.80
2019-04-18T15:52:12.956Z,64.60
2019-04-18T15:54:43.159Z,64.50
2019-04-18T15:57:13.480Z,64.50
2019-04-18T15:59:43.602Z,64.70
2019-04-18T16:02:14.028Z,64.60
2019-04-18T16:04:45.665Z,63.60
2019-04-18T16:07:16.446Z,63.40
2019-04-18T16:09:47.241Z,59.40
2019-04-18T16:12:17.475Z,60.20
2019-04-18T16:14:53.436Z,58.40
2019-04-18T16:17:23.753Z,59.50
2019-04-18T16:19:53.875Z,57.90
2019-04-18T16:22:24.094Z,59.30
2019-04-18T16:24:54.220Z,60.70
2019-04-18T16:27:24.435Z,58.60
2019-04-18T16:29:54.760Z,60.60
2019-04-18T16:32:25.294Z,60.90
2019-04-18T16:34:55.410Z,60.50
2019-04-18T16:37:25.633Z,59.80
2019-04-18T16:39:55.754Z,59.80
2019-04-18T16:42:30.869Z,60.70
2019-04-18T16:44:57.627Z,60.40
2019-04-18T16:47:29.285Z,60.20
2019-04-18T16:49:59.603Z,60.10
2019-04-18T16:52:30.038Z,60.70
2019-04-18T16:55:00.252Z,61.30
2019-04-18T16:57:30.378Z,61.40
2019-04-18T17:00:00.697Z,61.50
2019-04-18T17:02:31.021Z,61.20
2019-04-18T17:05:01.139Z,62.60
2019-04-18T17:07:31.261Z,62.90
2019-04-18T17:10:02.924Z,63.60
2019-04-18T17:12:34.137Z,64.10
2019-04-18T17:15:05.405Z,65.00
2019-04-18T17:17:35.935Z,64.80
2019-04-18T17:20:09.049Z,64.70
2019-04-18T17:22:42.060Z,63.60
2019-04-18T17:25:22.492Z,65.70
2019-04-18T17:27:51.055Z,66.60
2019-04-18T17:30:21.586Z,66.80
2019-04-18T17:32:51.709Z,64.40
2019-04-18T17:35:32.568Z,64.80
2019-04-18T17:38:19.362Z,62.90
2019-04-18T17:40:35.802Z,63.90
2019-04-18T17:43:04.059Z,63.40
2019-04-18T17:45:29.296Z,63.60
2019-04-18T17:48:00.874Z,64.60
2019-04-18T17:50:37.333Z,64.20
2019-04-18T17:53:18.002Z,63.90
2019-04-18T17:55:50.714Z,64.10
2019-04-18T17:58:09.281Z,64.10
2019-04-18T18:00:42.091Z,63.60
2019-04-18T18:03:22.689Z,64.60
2019-04-18T18:05:53.016Z,63.80
2019-04-18T18:08:17.053Z,64.60
2019-04-18T18:10:46.793Z,64.80
2019-04-18T18:13:22.122Z,62.50
2019-04-18T18:16:02.597Z,64.30
2019-04-18T18:18:40.284Z,65.50
2019-04-18T18:21:09.049Z,64.80
2019-04-18T18:23:38.660Z,65.20
2019-04-18T18:26:12.779Z,64.70
2019-04-18T18:28:42.029Z,64.70
2019-04-18T18:31:18.618Z,65.40
2019-04-18T18:33:49.074Z,65.10
2019-04-18T18:36:26.792Z,65.10
2019-04-18T18:39:01.464Z,64.90
2019-04-18T18:41:33.922Z,64.60
2019-04-18T18:44:09.776Z,65.40
2019-04-18T18:46:35.516Z,65.70
2019-04-18T18:49:07.748Z,65.70
2019-04-18T18:51:41.799Z,65.60
2019-04-18T18:54:11.606Z,64.90
2019-04-18T18:56:42.650Z,65.30
2019-04-18T18:59:17.640Z,65.50
2019-04-18T19:01:45.033Z,65.20
2019-04-18T19:04:17.066Z,65.10
2019-04-18T19:06:50.307Z,65.60
2019-04-18T19:09:34.769Z,65.50
2019-04-18T19:12:02.052Z,65.80
2019-04-18T19:14:31.056Z,65.10
2019-04-18T19:17:03.348Z,65.50
2019-04-18T19:19:25.494Z,65.40
2019-04-18T19:22:01.130Z,65.20
2019-04-18T19:24:27.376Z,65.80
2019-04-18T19:27:06.831Z,65.10
2019-04-18T19:29:39.848Z,65.70
2019-04-18T19:32:05.786Z,65.30
2019-04-18T19:34:32.897Z,65.50
2019-04-18T19:37:19.297Z,65.20
2019-04-18T19:39:56.894Z,65.40
2019-04-18T19:42:12.632Z,65.70
2019-04-18T19:44:38.829Z,64.90
2019-04-18T19:47:09.195Z,65.30
2019-04-18T19:49:40.193Z,65.30
2019-04-18T19:52:16.711Z,65.30
2019-04-18T19:54:42.998Z,65.20
2019-04-18T19:57:14.348Z,65.50
2019-04-18T19:59:44.838Z,65.00
2019-04-18T20:02:16.638Z,65.90
2019-04-18T20:04:50.804Z,65.40
2019-04-18T20:07:33.865Z,65.90
2019-04-18T20:10:03.221Z,65.60
2019-04-18T20:12:31.677Z,65.70
2019-04-18T20:14:54.184Z,64.40
2019-04-18T20:17:24.757Z,65.80
2019-04-18T20:20:01.878Z,65.00
2019-04-18T20:22:31.548Z,65.50
2019-04-18T20:25:02.188Z,65.60
2019-04-18T20:27:42.551Z,65.60
2019-04-18T20:30:17.160Z,65.40
2019-04-18T20:32:44.619Z,65.70
2019-04-18T20:35:17.049Z,66.10
2019-04-18T20:37:55.670Z,66.20
2019-04-18T20:40:37.644Z,66.40
2019-04-18T20:43:03.922Z,66.20
2019-04-18T20:45:38.875Z,65.80
2019-04-18T20:48:02.713Z,66.40
2019-04-18T20:50:31.198Z,66.50
2019-04-18T20:53:20.304Z,66.10
2019-04-18T20:55:42.944Z,66.20
2019-04-18T20:58:03.705Z,66.50
2019-04-18T21:00:32.128Z,66.40
2019-04-18T21:03:03.980Z,66.80
2019-04-18T21:05:37.619Z,66.70
2019-04-18T21:08:18.982Z,66.00
2019-04-18T21:10:41.731Z,66.60
2019-04-18T21:13:09.062Z,66.30
2019-04-18T21:15:42.614Z,66.80
2019-04-18T21:18:13.409Z,66.80
2019-04-18T21:20:42.488Z,66.90
2019-04-18T21:23:12.818Z,67.00
2019-04-18T21:25:44.170Z,66.70
2019-04-18T21:28:21.397Z,66.50
2019-04-18T21:30:46.142Z,66.20
2019-04-18T21:33:19.450Z,66.60
2019-04-18T21:35:48.686Z,67.10
2019-04-18T21:38:23.749Z,66.40
2019-04-18T21:40:51.022Z,67.00
2019-04-18T21:43:24.419Z,67.10
2019-04-18T21:45:53.341Z,66.60
2019-04-18T21:48:24.975Z,67.00
2019-04-18T21:51:00.747Z,66.70
2019-04-18T21:53:28.317Z,67.40
2019-04-18T21:56:01.480Z,67.40
2019-04-18T21:58:44.944Z,67.80
2019-04-18T22:01:06.756Z,67.50
2019-04-18T22:03:44.643Z,66.70
2019-04-18T22:06:09.690Z,67.10
2019-04-18T22:08:40.808Z,67.20
2019-04-18T22:11:15.161Z,67.30
2019-04-18T22:13:43.069Z,67.60
2019-04-18T22:16:15.374Z,66.60
2019-04-18T22:18:45.846Z,67.30
2019-04-18T22:21:19.922Z,66.90
2019-04-18T22:23:48.346Z,67.50
2019-04-18T22:26:23.975Z,67.30
2019-04-18T22:28:50.471Z,67.50
2019-04-18T22:31:22.301Z,66.90
2019-04-18T22:33:52.605Z,67.20
2019-04-18T22:36:25.373Z,66.80
2019-04-18T22:38:56.760Z,67.10
2019-04-18T22:41:31.520Z,67.50
2019-04-18T22:44:01.427Z,67.60
2019-04-18T22:46:31.905Z,67.10
2019-04-18T22:49:04.904Z,67.20
2019-04-18T22:51:37.301Z,67.30
2019-04-18T22:54:06.777Z,67.00
2019-04-18T22:56:45.223Z,67.20
2019-04-18T22:59:14.409Z,66.90
2019-04-18T23:01:45.845Z,67.00
2019-04-18T23:04:16.223Z,67.40
2019-04-18T23:06:45.889Z,66.50
2019-04-18T23:09:20.473Z,67.50
2019-04-18T23:11:55.038Z,66.90
2019-04-18T23:14:20.536Z,66.80
2019-04-18T23:16:52.938Z,66.80
2019-04-18T23:19:22.588Z,67.20
2019-04-18T23:21:56.602Z,66.70
2019-04-18T23:24:25.592Z,66.90
2019-04-18T23:26:59.081Z,66.80
2019-04-18T23:29:27.892Z,66.70
2019-04-18T23:32:01.236Z,67.20
2019-04-18T23:34:35.666Z,67.30
2019-04-18T23:37:02.638Z,67.00
2019-04-18T23:39:38.588Z,66.90
2019-04-18T23:42:08.238Z,67.00
2019-04-18T23:44:39.031Z,66.70
2019-04-18T23:47:10.976Z,67.10
2019-04-18T23:49:41.134Z,66.60
2019-04-18T23:52:17.217Z,66.90
2019-04-18T23:54:42.805Z,67.10
2019-04-18T23:57:17.294Z,67.20
2019-04-18T23:59:45.184Z,66.70
